Time;durP1;ratioP1;P1;durP2;ratioP2;P2;SDS_P1;SDS_P2;PMS_P1;PMS_P2;Temp;Humidity;BMP_temperature;BMP_pressure;BME280_temperature;BME280_humidity;BME280_pressure;Samples;Min_cycle;Max_cycle;Signal;HPM_P1;HPM_P2
2022/08/02 00:02:09;;;;;;;13.23;4.60;;;13.10;99.90;;;;;;5034500;28;20060;-66
2022/08/02 00:04:35;;;;;;;8.63;3.30;;;13.10;99.90;;;;;;5034522;28;20080;-66
2022/08/02 00:07:02;;;;;;;10.32;3.75;;;13.10;99.90;;;;;;5033442;28;20110;-67
2022/08/02 00:09:29;;;;;;;14.65;3.78;;;13.10;99.90;;;;;;5034729;28;20049;-66
2022/08/02 00:11:56;;;;;;;9.68;4.03;;;13.10;99.90;;;;;;5036371;28;20052;-66
2022/08/02 00:14:24;;;;;;;7.57;3.30;;;13.00;99.90;;;;;;5055624;28;20041;-67
2022/08/02 00:16:51;;;;;;;8.13;3.58;;;13.00;99.90;;;;;;5055973;28;20053;-67
2022/08/02 00:19:18;;;;;;;7.35;3.17;;;13.00;99.90;;;;;;5055312;28;20104;-67
2022/08/02 00:21:45;;;;;;;9.10;3.47;;;12.90;99.90;;;;;;5038093;28;20048;-68
2022/08/02 00:24:12;;;;;;;8.50;3.13;;;12.90;99.90;;;;;;5038158;28;20049;-67
2022/08/02 00:26:39;;;;;;;11.35;3.90;;;12.90;99.90;;;;;;5037588;28;20060;-66
2022/08/02 00:29:05;;;;;;;13.02;4.10;;;12.80;99.90;;;;;;5055566;28;20080;-68
2022/08/02 00:31:34;;;;;;;9.50;3.42;;;12.80;99.90;;;;;;5056020;28;20103;-67
2022/08/02 00:34:00;;;;;;;14.70;3.58;;;12.70;99.90;;;;;;5054609;28;20497;-67
2022/08/02 00:36:28;;;;;;;7.20;3.78;;;12.70;99.90;;;;;;5055193;28;20049;-67
2022/08/02 00:38:55;;;;;;;9.90;3.35;;;12.70;99.90;;;;;;5037880;28;20084;-68
2022/08/02 00:41:22;;;;;;;7.68;3.40;;;12.60;99.90;;;;;;5036788;28;20057;-67
2022/08/02 00:43:51;;;;;;;8.45;3.30;;;12.60;99.90;;;;;;5038128;28;20087;-66
2022/08/02 00:46:19;;;;;;;9.93;3.42;;;12.60;99.90;;;;;;5055669;28;20045;-67
2022/08/02 00:48:48;;;;;;;11.13;3.50;;;12.50;99.90;;;;;;5054608;28;20128;-67
2022/08/02 00:51:16;;;;;;;8.18;3.75;;;12.50;99.90;;;;;;5037483;28;20049;-67
2022/08/02 00:53:43;;;;;;;7.95;3.10;;;12.50;99.90;;;;;;5055256;28;20053;-67
2022/08/02 00:56:10;;;;;;;9.85;3.45;;;12.40;99.90;;;;;;5054285;28;20091;-67
2022/08/02 00:58:37;;;;;;;7.22;3.55;;;12.40;99.90;;;;;;5037113;28;20053;-67
2022/08/02 01:01:04;;;;;;;8.85;3.28;;;12.30;99.90;;;;;;5037269;28;20404;-66
2022/08/02 01:03:31;;;;;;;7.35;2.95;;;12.30;99.90;;;;;;5037116;28;20106;-66
2022/08/02 01:05:59;;;;;;;5.07;2.85;;;12.30;99.90;;;;;;5055092;28;20049;-67
2022/08/02 01:08:26;;;;;;;5.85;2.72;;;12.30;99.90;;;;;;5036619;28;20057;-67
2022/08/02 01:10:52;;;;;;;7.28;2.75;;;12.30;99.90;;;;;;5053660;28;20497;-67
2022/08/02 01:13:20;;;;;;;10.52;3.30;;;12.20;99.90;;;;;;5055191;28;20103;-66
2022/08/02 01:15:53;;;;;;;6.72;3.05;;;12.20;99.90;;;;;;5054373;28;20045;-67
2022/08/02 01:18:25;;;;;;;9.65;3.17;;;12.20;99.90;;;;;;5036962;28;20096;-67
2022/08/02 01:21:43;;;;;;;7.85;3.35;;;12.20;99.90;;;;;;5054797;28;20045;-67
2022/08/02 01:24:35;;;;;;;7.45;2.58;;;12.20;99.90;;;;;;4980601;28;20115;-66
2022/08/02 01:27:19;;;;;;;10.32;3.22;;;12.20;99.90;;;;;;5034676;28;20512;-66
2022/08/02 01:29:51;;;;;;;10.07;4.00;;;12.20;99.90;;;;;;5016871;28;20053;-66
2022/08/02 01:32:23;;;;;;;7.43;2.97;;;12.20;99.90;;;;;;5035799;28;20131;-67
2022/08/02 01:34:54;;;;;;;8.02;3.10;;;12.20;99.90;;;;;;5054537;28;20126;-67
2022/08/02 01:37:25;;;;;;;10.60;2.90;;;12.20;99.90;;;;;;5035885;28;20061;-68
2022/08/02 01:40:01;;;;;;;6.35;2.70;;;12.20;99.90;;;;;;5053466;28;20080;-66
2022/08/02 01:42:31;;;;;;;7.50;3.00;;;12.20;99.90;;;;;;5036127;28;20103;-67
2022/08/02 01:45:01;;;;;;;10.98;2.90;;;12.20;99.90;;;;;;5035818;28;20073;-67
2022/08/02 01:47:31;;;;;;;8.63;3.33;;;12.20;99.90;;;;;;5036406;28;20493;-66
2022/08/02 01:49:59;;;;;;;6.68;2.67;;;12.30;99.90;;;;;;5054427;28;20048;-67
2022/08/02 01:52:29;;;;;;;7.47;2.65;;;12.30;99.90;;;;;;5035856;28;20056;-66
2022/08/02 01:55:01;;;;;;;12.77;3.50;;;12.30;99.90;;;;;;5054698;28;20419;-66
2022/08/02 01:57:30;;;;;;;4.30;2.60;;;12.30;99.90;;;;;;5052791;28;20049;-67
2022/08/02 02:00:01;;;;;;;7.93;2.87;;;12.30;99.90;;;;;;5054138;28;20049;-67
2022/08/02 02:02:30;;;;;;;6.50;3.13;;;12.40;99.90;;;;;;5054031;28;20044;-67
2022/08/02 02:04:59;;;;;;;8.65;2.75;;;12.40;99.90;;;;;;5053745;28;20072;-67
2022/08/02 02:07:27;;;;;;;6.35;2.80;;;12.40;99.90;;;;;;5035846;28;20171;-67
2022/08/02 02:09:55;;;;;;;10.40;3.20;;;12.50;99.90;;;;;;5053922;28;20090;-67
2022/08/02 02:12:24;;;;;;;8.38;3.13;;;12.50;99.90;;;;;;5035396;28;20378;-67
2022/08/02 02:14:52;;;;;;;8.02;3.47;;;12.50;99.90;;;;;;5054147;28;20412;-66
2022/08/02 02:17:22;;;;;;;10.35;4.43;;;12.50;99.90;;;;;;5036155;28;20118;-66
2022/08/02 02:19:51;;;;;;;6.82;3.70;;;12.60;99.90;;;;;;5035386;28;20472;-67
2022/08/02 02:22:18;;;;;;;18.13;4.35;;;12.60;99.90;;;;;;5036075;28;20087;-66
2022/08/02 02:24:44;;;;;;;20.00;4.25;;;12.60;99.90;;;;;;5053728;28;20099;-67
2022/08/02 02:27:14;;;;;;;11.32;3.53;;;12.60;99.90;;;;;;5035229;28;20081;-67
2022/08/02 02:29:46;;;;;;;6.97;3.60;;;12.60;99.90;;;;;;5053801;28;20468;-67
2022/08/02 02:32:16;;;;;;;8.05;3.47;;;12.60;99.90;;;;;;5035702;28;20052;-66
2022/08/02 02:34:46;;;;;;;7.18;3.35;;;12.70;99.90;;;;;;5034194;28;20091;-67
2022/08/02 02:37:17;;;;;;;10.57;3.50;;;12.70;99.90;;;;;;5053040;28;20554;-68
2022/08/02 02:39:45;;;;;;;6.53;3.33;;;12.70;99.90;;;;;;5052181;28;20111;-66
2022/08/02 02:42:16;;;;;;;11.48;3.25;;;12.70;99.90;;;;;;5052459;28;20049;-66
2022/08/02 02:44:44;;;;;;;9.15;3.88;;;12.70;99.90;;;;;;5053594;28;20056;-66
2022/08/02 02:47:12;;;;;;;10.13;3.88;;;12.70;99.90;;;;;;5034574;28;20140;-67
2022/08/02 02:49:40;;;;;;;11.02;3.33;;;12.70;99.90;;;;;;5052843;28;20048;-66
2022/08/02 02:52:10;;;;;;;11.63;3.92;;;12.70;99.90;;;;;;5035667;28;20049;-68
2022/08/02 02:54:38;;;;;;;5.78;3.80;;;12.60;99.90;;;;;;5052110;28;20104;-67
2022/08/02 02:57:06;;;;;;;10.05;3.63;;;12.60;99.90;;;;;;5052039;28;20489;-67
2022/08/02 02:59:34;;;;;;;6.53;3.00;;;12.70;99.90;;;;;;5053454;28;20378;-66
2022/08/02 03:02:02;;;;;;;7.85;4.03;;;12.60;99.90;;;;;;5033934;28;20048;-66
2022/08/02 03:04:30;;;;;;;10.40;3.78;;;12.60;99.90;;;;;;5035060;28;20045;-66
2022/08/02 03:06:57;;;;;;;11.45;3.35;;;12.60;99.90;;;;;;5052655;28;20049;-67
2022/08/02 03:09:26;;;;;;;9.10;3.00;;;12.60;99.90;;;;;;5052165;28;20412;-67
2022/08/02 03:11:54;;;;;;;8.38;3.80;;;12.60;99.90;;;;;;5052670;28;20554;-67
2022/08/02 03:14:22;;;;;;;8.73;3.22;;;12.50;99.90;;;;;;5034473;28;20049;-66
2022/08/02 03:16:51;;;;;;;13.80;4.00;;;12.50;99.90;;;;;;5033673;28;20099;-66
2022/08/02 03:19:20;;;;;;;10.13;3.60;;;12.60;99.90;;;;;;5034981;28;20061;-66
2022/08/02 03:21:48;;;;;;;9.27;3.47;;;12.50;99.90;;;;;;5052354;28;20138;-66
2022/08/02 03:24:15;;;;;;;8.65;3.47;;;12.60;99.90;;;;;;5052750;28;20049;-68
2022/08/02 03:26:44;;;;;;;6.18;3.10;;;12.60;99.90;;;;;;5052618;28;20060;-67
2022/08/02 03:29:11;;;;;;;11.98;3.85;;;12.60;99.90;;;;;;5034497;28;20056;-66
2022/08/02 03:31:41;;;;;;;6.97;3.17;;;12.50;99.90;;;;;;5034208;28;20523;-66
2022/08/02 03:34:08;;;;;;;10.15;3.78;;;12.60;99.90;;;;;;5034852;28;20132;-67
2022/08/02 03:36:36;;;;;;;9.02;3.45;;;12.60;99.90;;;;;;5051540;28;20045;-67
2022/08/02 03:39:04;;;;;;;6.57;3.05;;;12.50;99.90;;;;;;5052476;28;20048;-67
2022/08/02 03:41:31;;;;;;;9.35;3.80;;;12.50;99.90;;;;;;5034478;28;20111;-67
2022/08/02 03:44:01;;;;;;;14.75;4.22;;;12.50;99.90;;;;;;5051259;28;20099;-67
2022/08/02 03:46:28;;;;;;;9.65;3.40;;;12.50;99.90;;;;;;5054322;28;20143;-65
2022/08/02 03:48:56;;;;;;;14.73;3.97;;;12.50;99.90;;;;;;5054585;28;20721;-66
2022/08/02 03:51:23;;;;;;;8.30;2.88;;;12.50;99.90;;;;;;5047795;28;20053;-66
2022/08/02 03:53:51;;;;;;;7.53;3.58;;;12.70;99.90;;;;;;5034287;28;20061;-66
2022/08/02 03:56:18;;;;;;;10.30;3.78;;;12.90;99.90;;;;;;5034606;28;20389;-66
2022/08/02 03:58:45;;;;;;;12.07;3.65;;;12.80;99.90;;;;;;5020954;28;20570;-66
2022/08/02 04:01:13;;;;;;;10.18;4.30;;;12.90;99.90;;;;;;5039038;28;20057;-66
2022/08/02 04:03:40;;;;;;;5.53;3.30;;;12.90;99.90;;;;;;5017480;28;20057;-67
2022/08/02 04:06:07;;;;;;;8.50;3.67;;;13.10;99.90;;;;;;5016027;28;20112;-67
2022/08/02 04:08:34;;;;;;;8.73;3.53;;;13.00;99.90;;;;;;5034130;28;20050;-66
2022/08/02 04:13:46;;;;;;;8.60;3.47;;;13.20;99.90;;;;;;5034482;28;20041;-66
2022/08/02 04:16:19;;;;;;;8.27;3.40;;;13.30;99.90;;;;;;5034622;28;20049;-66
2022/08/02 04:18:50;;;;;;;10.95;4.57;;;13.10;99.90;;;;;;5034907;28;20099;-66
2022/08/02 04:21:19;;;;;;;10.30;3.78;;;13.10;99.90;;;;;;5020540;28;20047;-66
2022/08/02 04:23:48;;;;;;;13.55;3.88;;;13.30;99.90;;;;;;5016192;28;20092;-66
2022/08/02 04:26:16;;;;;;;10.02;3.78;;;13.30;99.90;;;;;;5016241;28;20045;-67
2022/08/02 04:28:43;;;;;;;9.00;4.22;;;13.20;99.90;;;;;;5015686;28;20049;-66
2022/08/02 04:31:10;;;;;;;11.32;4.60;;;13.20;99.90;;;;;;5034090;28;20099;-67
2022/08/02 04:33:39;;;;;;;18.45;5.15;;;13.10;99.90;;;;;;5015920;28;20056;-68
2022/08/02 04:36:07;;;;;;;7.32;4.30;;;13.10;99.90;;;;;;5043738;28;20623;-66
2022/08/02 04:38:34;;;;;;;8.05;4.38;;;13.10;99.90;;;;;;5023688;28;20045;-66
2022/08/02 04:41:01;;;;;;;10.57;4.50;;;13.10;99.90;;;;;;5015498;28;20493;-67
2022/08/02 04:43:28;;;;;;;9.88;4.47;;;13.10;99.90;;;;;;5034243;28;20411;-68
2022/08/02 04:45:55;;;;;;;7.80;4.25;;;13.00;99.90;;;;;;5016431;28;20498;-66
2022/08/02 04:48:22;;;;;;;10.75;4.28;;;12.90;99.90;;;;;;5036882;28;20142;-68
2022/08/02 04:50:51;;;;;;;10.13;4.03;;;12.90;99.90;;;;;;5038711;28;20049;-66
2022/08/02 04:53:18;;;;;;;11.82;4.72;;;12.90;99.90;;;;;;5015920;28;20047;-66
2022/08/02 04:55:45;;;;;;;11.18;4.70;;;12.90;99.90;;;;;;5034859;28;20038;-68
2022/08/02 04:58:12;;;;;;;8.60;4.30;;;12.90;99.90;;;;;;5039835;28;20531;-66
2022/08/02 05:00:39;;;;;;;19.58;4.65;;;12.80;99.90;;;;;;5046333;28;20449;-67
2022/08/02 05:03:06;;;;;;;10.73;4.93;;;12.90;99.90;;;;;;5032994;28;20452;-67
2022/08/02 05:05:34;;;;;;;10.73;4.47;;;12.90;99.90;;;;;;5047101;28;20040;-67
2022/08/02 05:08:02;;;;;;;10.55;4.35;;;13.00;99.90;;;;;;5050196;28;20501;-67
2022/08/02 05:10:29;;;;;;;8.18;4.55;;;13.00;99.90;;;;;;5050943;28;20054;-67
2022/08/02 05:12:56;;;;;;;8.20;4.82;;;13.10;99.90;;;;;;5035478;28;20050;-66
2022/08/02 05:15:23;;;;;;;11.55;4.93;;;13.20;99.90;;;;;;5031736;28;20227;-67
2022/08/02 05:17:50;;;;;;;8.27;4.45;;;13.30;99.90;;;;;;5017636;28;20045;-67
2022/08/02 05:20:19;;;;;;;7.38;4.30;;;13.40;99.90;;;;;;5036188;28;20041;-68
2022/08/02 05:22:47;;;;;;;12.70;5.00;;;13.40;99.90;;;;;;5032276;28;20111;-68
2022/08/02 05:25:15;;;;;;;11.02;4.57;;;13.60;99.90;;;;;;5015515;28;20053;-67
2022/08/02 05:27:42;;;;;;;9.68;4.90;;;13.70;99.90;;;;;;5033714;28;20409;-67
2022/08/02 05:30:10;;;;;;;10.02;4.40;;;13.80;99.90;;;;;;5032817;28;20045;-68
2022/08/02 05:32:44;;;;;;;9.75;3.92;;;13.90;99.90;;;;;;5015983;28;20084;-67
2022/08/02 05:35:11;;;;;;;9.85;4.82;;;14.10;99.90;;;;;;5015154;28;20075;-67
2022/08/02 05:37:38;;;;;;;11.63;4.20;;;14.20;99.90;;;;;;5013852;28;20049;-67
2022/08/02 05:40:06;;;;;;;14.32;5.22;;;14.40;99.90;;;;;;5033180;28;20081;-68
2022/08/02 05:42:35;;;;;;;9.15;4.00;;;14.50;99.90;;;;;;5032448;28;20073;-67
2022/08/02 05:45:01;;;;;;;10.10;4.43;;;14.70;99.90;;;;;;5032674;28;20057;-66
2022/08/02 05:47:28;;;;;;;9.27;4.53;;;14.80;99.90;;;;;;5022525;28;20099;-66
2022/08/02 05:49:55;;;;;;;9.10;4.05;;;14.90;99.90;;;;;;5032001;28;20041;-67
2022/08/02 05:52:25;;;;;;;12.10;4.32;;;15.10;99.90;;;;;;5034123;28;20049;-68
2022/08/02 05:55:03;;;;;;;9.75;3.83;;;15.20;99.90;;;;;;5037064;28;20505;-66
2022/08/02 05:57:47;;;;;;;14.23;4.35;;;15.50;99.90;;;;;;5031116;28;20096;-66
2022/08/02 06:00:15;;;;;;;9.93;4.38;;;15.80;99.90;;;;;;5032472;28;20049;-67
2022/08/02 06:03:01;;;;;;;7.97;4.43;;;16.00;99.90;;;;;;5016828;28;20076;-67
2022/08/02 06:05:32;;;;;;;6.35;3.42;;;16.20;99.90;;;;;;5032252;28;20045;-67
2022/08/02 06:07:59;;;;;;;5.95;3.50;;;16.50;99.90;;;;;;5014862;28;20049;-68
2022/08/02 06:10:28;;;;;;;7.90;3.58;;;16.70;99.90;;;;;;5014354;28;20127;-66
2022/08/02 06:13:09;;;;;;;9.27;3.63;;;16.90;99.90;;;;;;5031339;28;20095;-68
2022/08/02 06:15:36;;;;;;;9.38;3.38;;;17.10;99.90;;;;;;5014223;28;20550;-68
2022/08/02 06:18:04;;;;;;;8.48;3.83;;;17.30;99.90;;;;;;5030515;28;20046;-67
2022/08/02 06:20:34;;;;;;;6.93;3.63;;;17.30;99.90;;;;;;5032601;28;20521;-67
2022/08/02 06:23:02;;;;;;;10.40;3.83;;;17.40;99.90;;;;;;5038044;28;20063;-67
2022/08/02 06:25:30;;;;;;;10.50;3.70;;;17.50;99.90;;;;;;5043057;28;20098;-68
2022/08/02 06:27:59;;;;;;;7.93;3.28;;;17.80;99.90;;;;;;5053342;28;20048;-68
2022/08/02 06:30:27;;;;;;;5.82;3.75;;;18.10;99.90;;;;;;5049528;28;20418;-67
2022/08/02 06:32:55;;;;;;;7.40;3.10;;;18.30;99.90;;;;;;5033483;28;20049;-68
2022/08/02 06:35:22;;;;;;;11.35;3.17;;;18.40;99.90;;;;;;5035034;28;20091;-67
2022/08/02 06:37:56;;;;;;;8.98;3.00;;;18.60;99.90;;;;;;5052208;28;20587;-67
2022/08/02 06:40:26;;;;;;;5.15;2.80;;;18.70;99.90;;;;;;5033883;28;20103;-68
2022/08/02 06:43:05;;;;;;;5.03;2.65;;;19.00;99.90;;;;;;5033302;28;20418;-68
2022/08/02 06:45:33;;;;;;;6.13;2.58;;;19.30;99.90;;;;;;5033043;28;20089;-67
2022/08/02 06:47:59;;;;;;;5.18;2.20;;;19.60;99.90;;;;;;5031973;28;20132;-68
2022/08/02 06:50:27;;;;;;;5.93;2.58;;;20.00;99.90;;;;;;5044835;28;20056;-68
2022/08/02 06:52:53;;;;;;;7.38;2.70;;;20.40;99.90;;;;;;5052161;28;20509;-68
2022/08/02 06:55:20;;;;;;;8.48;2.60;;;20.60;99.90;;;;;;5052876;28;20456;-69
2022/08/02 06:57:47;;;;;;;10.93;2.65;;;20.80;99.90;;;;;;5052511;28;20049;-68
2022/08/02 07:00:16;;;;;;;7.32;2.72;;;21.10;99.90;;;;;;5034356;28;20555;-69
2022/08/02 07:02:42;;;;;;;5.20;2.53;;;21.50;99.90;;;;;;5035193;28;20049;-68
2022/08/02 07:05:10;;;;;;;5.40;2.22;;;22.00;99.90;;;;;;5034420;28;20493;-69
2022/08/02 07:07:37;;;;;;;9.68;3.15;;;22.30;99.90;;;;;;5051484;28;20047;-68
2022/08/02 07:10:04;;;;;;;10.32;2.88;;;22.50;99.60;;;;;;5034666;28;20045;-68
2022/08/02 07:12:33;;;;;;;7.30;2.58;;;22.70;99.10;;;;;;5034252;28;20138;-68
2022/08/02 07:15:00;;;;;;;6.03;2.50;;;23.00;98.90;;;;;;5024323;28;20049;-69
2022/08/02 07:17:29;;;;;;;6.03;1.63;;;23.20;97.00;;;;;;5015023;28;20457;-69
2022/08/02 07:19:55;;;;;;;5.22;1.88;;;23.30;97.60;;;;;;5030856;28;20547;-67
2022/08/02 07:22:23;;;;;;;4.35;1.80;;;23.20;97.30;;;;;;5033906;28;20080;-68
2022/08/02 07:24:50;;;;;;;6.07;1.95;;;23.00;96.70;;;;;;5036487;28;20238;-69
2022/08/02 07:27:17;;;;;;;6.70;2.95;;;23.10;96.50;;;;;;5032662;28;20378;-69
2022/08/02 07:29:44;;;;;;;6.15;1.70;;;23.30;96.00;;;;;;5014321;28;20123;-69
2022/08/02 07:32:10;;;;;;;6.85;2.00;;;23.70;95.60;;;;;;5049794;28;20052;-68
2022/08/02 07:34:39;;;;;;;4.72;1.75;;;23.90;94.60;;;;;;5034772;28;20107;-69
2022/08/02 07:37:05;;;;;;;6.97;1.95;;;24.20;94.40;;;;;;5051688;28;20081;-69
2022/08/02 07:39:32;;;;;;;4.72;1.95;;;24.40;93.90;;;;;;5052678;28;20057;-69
2022/08/02 07:41:59;;;;;;;5.68;1.70;;;24.60;93.60;;;;;;5052830;28;20382;-68
2022/08/02 07:44:30;;;;;;;4.97;1.75;;;24.90;93.70;;;;;;5052095;28;20408;-69
2022/08/02 07:46:57;;;;;;;4.05;1.52;;;25.30;93.20;;;;;;5052639;28;20412;-68
2022/08/02 07:49:24;;;;;;;8.30;2.28;;;25.60;92.80;;;;;;5034079;28;20585;-69
2022/08/02 07:51:52;;;;;;;4.32;1.50;;;25.60;91.90;;;;;;5034764;28;20045;-69
2022/08/02 07:54:19;;;;;;;4.68;1.42;;;26.10;91.30;;;;;;5034648;28;20437;-69
2022/08/02 07:56:46;;;;;;;4.68;1.67;;;26.30;90.90;;;;;;5051468;28;20071;-70
2022/08/02 07:59:13;;;;;;;6.05;1.55;;;26.30;86.70;;;;;;5052525;28;20057;-69
2022/08/02 08:01:40;;;;;;;4.35;1.40;;;26.40;88.60;;;;;;5034687;28;20049;-69
2022/08/02 08:04:07;;;;;;;4.07;1.30;;;26.50;86.90;;;;;;5034033;28;20053;-68
2022/08/02 08:06:34;;;;;;;3.70;1.50;;;26.50;83.80;;;;;;5052358;28;20412;-68
2022/08/02 08:09:03;;;;;;;4.50;1.27;;;26.40;85.10;;;;;;5034544;28;20053;-69
2022/08/02 08:11:30;;;;;;;3.33;1.42;;;26.40;84.40;;;;;;5033429;28;20107;-70
2022/08/02 08:13:57;;;;;;;2.15;1.05;;;26.30;81.70;;;;;;5034716;28;20378;-69
2022/08/02 08:16:25;;;;;;;4.15;1.23;;;26.50;82.10;;;;;;5051688;28;20041;-69
2022/08/02 08:18:52;;;;;;;3.30;1.02;;;26.60;81.10;;;;;;5051292;28;20057;-69
2022/08/02 08:21:18;;;;;;;5.03;1.00;;;26.60;80.30;;;;;;5052172;28;20053;-69
2022/08/02 08:23:45;;;;;;;4.00;1.10;;;26.80;80.70;;;;;;5034355;28;20099;-70
2022/08/02 08:26:13;;;;;;;3.28;1.08;;;27.20;80.50;;;;;;5033669;28;20061;-69
2022/08/02 08:28:40;;;;;;;1.83;0.95;;;27.40;78.30;;;;;;5051555;28;20093;-70
2022/08/02 08:31:07;;;;;;;3.30;0.82;;;27.50;79.30;;;;;;5047334;28;20461;-69
2022/08/02 08:33:34;;;;;;;3.70;1.25;;;27.40;79.60;;;;;;5054315;28;20083;-69
2022/08/02 08:36:01;;;;;;;2.92;1.20;;;27.60;79.70;;;;;;5055017;28;20574;-69
2022/08/02 08:38:27;;;;;;;3.38;1.02;;;27.60;79.70;;;;;;5036721;28;20049;-69
2022/08/02 08:40:54;;;;;;;3.78;1.10;;;27.70;79.50;;;;;;5022214;28;20044;-70
2022/08/02 08:43:23;;;;;;;3.85;1.10;;;27.80;78.10;;;;;;5037657;28;20094;-69
2022/08/02 08:45:50;;;;;;;3.20;1.40;;;28.00;76.30;;;;;;5036974;28;20052;-69
2022/08/02 08:48:18;;;;;;;3.03;1.02;;;27.90;76.00;;;;;;5037767;28;20103;-69
2022/08/02 08:50:49;;;;;;;2.72;0.90;;;28.00;75.50;;;;;;5055361;28;20056;-70
2022/08/02 08:53:17;;;;;;;3.03;1.10;;;28.20;74.80;;;;;;5036623;28;20045;-69
2022/08/02 08:55:45;;;;;;;3.33;0.75;;;28.30;74.80;;;;;;5037554;28;20048;-68
2022/08/02 08:58:12;;;;;;;2.63;0.90;;;28.30;74.30;;;;;;5037233;28;20041;-69
2022/08/02 09:00:41;;;;;;;3.47;0.90;;;28.50;74.00;;;;;;5054585;28;20084;-69
2022/08/02 09:03:09;;;;;;;3.47;0.80;;;28.40;73.10;;;;;;5037380;28;20084;-70
2022/08/02 09:05:37;;;;;;;4.57;1.20;;;28.40;73.90;;;;;;5037337;28;20068;-69
2022/08/02 09:08:04;;;;;;;2.75;1.00;;;28.60;73.70;;;;;;5036143;28;20045;-69
2022/08/02 09:10:39;;;;;;;4.32;1.13;;;28.80;73.00;;;;;;5036385;28;20053;-69
2022/08/02 09:13:08;;;;;;;3.83;1.20;;;29.00;72.50;;;;;;5036100;28;20061;-70
2022/08/02 09:15:35;;;;;;;2.80;1.05;;;29.10;72.70;;;;;;5035539;28;20073;-69
2022/08/02 09:18:08;;;;;;;2.13;0.98;;;29.20;73.20;;;;;;5029004;28;20516;-69
2022/08/02 09:20:50;;;;;;;2.97;1.05;;;29.40;72.50;;;;;;5031297;28;20056;-70
2022/08/02 09:23:20;;;;;;;3.78;1.02;;;29.60;72.30;;;;;;5038391;28;20107;-70
2022/08/02 09:25:56;;;;;;;3.70;0.90;;;29.90;72.40;;;;;;5020193;28;20053;-69
2022/08/02 09:28:26;;;;;;;3.58;1.20;;;30.10;71.10;;;;;;5032790;28;20049;-70
2022/08/02 09:30:53;;;;;;;;;;;30.00;71.20;;;;;;5026150;28;20544;-69
2022/08/02 09:33:27;;;;;;;3.63;0.88;;;30.10;71.60;;;;;;5021125;28;19956;-69
2022/08/02 09:36:01;;;;;;;2.03;0.93;;;30.20;71.40;;;;;;5017858;28;20049;-69
2022/08/02 09:38:28;;;;;;;2.50;1.10;;;30.30;71.60;;;;;;5033387;28;20041;-68
2022/08/02 09:40:56;;;;;;;2.20;1.00;;;30.30;70.50;;;;;;5033408;28;20445;-69
2022/08/02 09:43:36;;;;;;;4.18;1.27;;;30.00;70.20;;;;;;5032386;28;20057;-69
2022/08/02 09:46:18;;;;;;;2.30;1.00;;;29.70;71.00;;;;;;5033146;28;20070;-71
2022/08/02 09:48:55;;;;;;;3.47;1.10;;;29.80;70.40;;;;;;5015028;28;20053;-70
2022/08/02 09:51:24;;;;;;;5.43;1.00;;;29.50;70.90;;;;;;5015485;28;20061;-68
2022/08/02 09:53:53;;;;;;;3.35;1.13;;;29.30;71.70;;;;;;5020172;28;20489;-68
2022/08/02 09:56:21;;;;;;;3.53;1.35;;;29.10;72.30;;;;;;5039557;28;20148;-69
2022/08/02 09:58:48;;;;;;;5.72;1.25;;;29.20;72.40;;;;;;5015180;28;20042;-70
2022/08/02 10:01:15;;;;;;;4.18;1.48;;;29.10;72.70;;;;;;5035278;28;20470;-69
2022/08/02 10:03:58;;;;;;;3.38;1.42;;;29.30;72.90;;;;;;5014497;28;20119;-69
2022/08/02 10:06:25;;;;;;;4.25;1.30;;;29.50;73.00;;;;;;5015240;28;20099;-70
2022/08/02 10:08:53;;;;;;;3.17;1.25;;;30.00;73.60;;;;;;5015797;28;20050;-70
2022/08/02 10:11:21;;;;;;;2.65;1.17;;;30.40;73.30;;;;;;5031791;28;20060;-71
2022/08/02 10:13:49;;;;;;;3.28;1.63;;;30.70;73.20;;;;;;5032921;28;20405;-69
2022/08/02 10:16:18;;;;;;;4.47;1.50;;;30.30;72.60;;;;;;5033742;28;20049;-69
2022/08/02 10:18:45;;;;;;;3.63;1.65;;;29.80;73.50;;;;;;5032201;28;20053;-69
2022/08/02 10:21:16;;;;;;;2.67;1.45;;;29.50;74.30;;;;;;5031892;28;20510;-69
2022/08/02 10:23:45;;;;;;;4.93;1.58;;;29.50;75.70;;;;;;5044769;28;20056;-70
2022/08/02 10:26:17;;;;;;;6.25;1.92;;;29.60;75.20;;;;;;5022694;28;20065;-70
2022/08/02 10:28:47;;;;;;;2.88;1.45;;;30.00;75.10;;;;;;5032466;28;20111;-70
2022/08/02 10:31:16;;;;;;;5.15;1.48;;;30.20;75.30;;;;;;5042625;28;20160;-69
2022/08/02 10:33:44;;;;;;;;;;;30.10;75.20;;;;;;5015300;28;20049;-69
2022/08/02 10:36:15;;;;;;;3.83;2.00;;;30.10;76.30;;;;;;5021580;28;19925;-71
2022/08/02 10:38:43;;;;;;;5.13;1.80;;;30.20;75.70;;;;;;5031547;28;20053;-70
2022/08/02 10:41:11;;;;;;;4.25;1.90;;;30.20;75.80;;;;;;5052151;28;20096;-70
2022/08/02 10:43:47;;;;;;;5.90;1.70;;;30.40;76.20;;;;;;5032205;28;20045;-70
2022/08/02 10:46:22;;;;;;;5.53;2.10;;;30.40;76.40;;;;;;5026585;28;20401;-70
2022/08/02 10:49:03;;;;;;;6.53;2.22;;;30.40;77.50;;;;;;5014650;28;20081;-68
2022/08/02 10:52:11;;;;;;;4.93;1.92;;;30.40;76.10;;;;;;5014021;28;20053;-69
2022/08/02 10:54:41;;;;;;;3.30;1.95;;;30.50;75.50;;;;;;5031830;28;20116;-69
2022/08/02 10:57:17;;;;;;;3.58;1.55;;;31.00;76.00;;;;;;5014811;28;20560;-68
2022/08/02 10:59:44;;;;;;;3.63;1.60;;;31.50;75.00;;;;;;5013424;28;20130;-70
2022/08/02 11:02:12;;;;;;;3.30;1.60;;;31.60;75.70;;;;;;5031800;28;20045;-69
2022/08/02 11:05:02;;;;;;;3.72;1.88;;;31.50;75.60;;;;;;5014618;28;20061;-68
2022/08/02 11:07:35;;;;;;;5.03;1.92;;;31.20;75.80;;;;;;5030462;28;20056;-70
2022/08/02 11:10:38;;;;;;;4.57;2.30;;;30.70;74.30;;;;;;5036432;28;20103;-70
2022/08/02 11:13:08;;;;;;;4.28;2.33;;;30.10;75.30;;;;;;5028780;28;20171;-70
2022/08/02 11:15:50;;;;;;;4.95;2.03;;;29.60;76.70;;;;;;5013773;28;20658;-68
2022/08/02 11:18:18;;;;;;;7.20;2.03;;;29.60;77.70;;;;;;5013155;28;20057;-69
2022/08/02 11:20:46;;;;;;;7.40;2.13;;;29.40;77.60;;;;;;5034704;28;20111;-69
2022/08/02 11:23:36;;;;;;;6.38;1.80;;;29.20;77.70;;;;;;5052265;28;20102;-69
2022/08/02 11:26:24;;;;;;;;;;;29.00;78.40;;;;;;5034450;28;20501;-70
2022/08/02 11:28:51;;;;;;;6.80;2.03;;;28.80;79.10;;;;;;5014552;28;19947;-72
2022/08/02 11:31:18;;;;;;;4.38;2.05;;;28.90;79.20;;;;;;5024013;28;20080;-71
2022/08/02 11:33:45;;;;;;;6.07;2.47;;;29.00;79.50;;;;;;5052330;28;20091;-71
2022/08/02 11:36:11;;;;;;;4.03;1.95;;;29.20;79.60;;;;;;5034388;28;20061;-70
2022/08/02 11:38:38;;;;;;;4.40;2.10;;;29.40;79.70;;;;;;5052405;28;20122;-69
2022/08/02 11:41:07;;;;;;;4.72;1.77;;;29.50;79.20;;;;;;5052543;28;20096;-71
2022/08/02 11:43:35;;;;;;;4.03;1.75;;;29.60;78.70;;;;;;5051514;28;20493;-69
2022/08/02 11:46:03;;;;;;;3.70;1.50;;;29.60;78.80;;;;;;5052370;28;20463;-70
2022/08/02 11:48:31;;;;;;;4.68;2.15;;;29.50;78.80;;;;;;5051622;28;20056;-69
2022/08/02 11:51:05;;;;;;;2.67;1.60;;;29.30;79.10;;;;;;5052472;28;20110;-69
2022/08/02 11:53:40;;;;;;;3.25;2.00;;;29.70;79.80;;;;;;5034727;28;20049;-70
2022/08/02 11:56:09;;;;;;;4.65;2.50;;;29.90;78.80;;;;;;5033263;28;20493;-71
2022/08/02 11:58:36;;;;;;;4.47;2.30;;;30.20;78.90;;;;;;5037424;28;20084;-70
2022/08/02 12:01:03;;;;;;;4.95;2.60;;;30.40;78.70;;;;;;5052427;28;20049;-69
2022/08/02 12:03:35;;;;;;;4.63;2.78;;;30.40;78.40;;;;;;5051342;28;20056;-69
2022/08/02 12:06:04;;;;;;;4.82;2.90;;;30.20;79.10;;;;;;5052347;28;20061;-71
2022/08/02 12:08:31;;;;;;;3.70;2.00;;;30.00;79.80;;;;;;5038416;28;20051;-70
2022/08/02 12:11:00;;;;;;;4.55;2.83;;;29.90;79.50;;;;;;5037962;28;20110;-69
2022/08/02 12:13:28;;;;;;;6.03;2.75;;;29.40;79.70;;;;;;5055779;28;20091;-70
2022/08/02 12:19:17;;;;;;;5.25;3.17;;;29.10;80.50;;;;;;5055937;28;20049;-70
2022/08/02 12:21:33;;;;;;;7.20;3.40;;;28.60;82.80;;;;;;5038012;28;20405;-68
2022/08/02 12:24:00;;;;;;;6.55;3.50;;;28.30;83.50;;;;;;5037391;28;20053;-70
2022/08/02 12:26:27;;;;;;;7.78;4.05;;;28.30;83.90;;;;;;5056043;28;20049;-71
2022/08/02 12:28:57;;;;;;;7.70;3.63;;;28.20;84.40;;;;;;5056038;28;20048;-71
2022/08/02 12:31:39;;;;;;;4.90;3.40;;;28.10;85.00;;;;;;5054927;28;20056;-69
2022/08/02 12:34:13;;;;;;;3.85;2.75;;;27.90;86.20;;;;;;5055383;28;20049;-70
2022/08/02 12:36:41;;;;;;;4.72;2.55;;;27.90;85.60;;;;;;5055110;28;20485;-71
2022/08/02 12:39:12;;;;;;;4.50;2.78;;;27.90;85.60;;;;;;5054688;28;20046;-70
2022/08/02 12:41:40;;;;;;;5.50;2.70;;;27.80;85.80;;;;;;5037642;28;20057;-69
2022/08/02 12:44:16;;;;;;;4.55;2.63;;;27.60;86.00;;;;;;5037719;28;20099;-70
2022/08/02 12:46:43;;;;;;;5.97;3.03;;;27.30;86.50;;;;;;5054910;28;20056;-70
2022/08/02 12:49:18;;;;;;;4.97;2.95;;;27.20;86.90;;;;;;5055514;28;20041;-70
2022/08/02 12:51:46;;;;;;;6.25;2.85;;;27.10;88.00;;;;;;5054672;28;20110;-71
2022/08/02 12:54:17;;;;;;;7.00;3.00;;;26.90;88.00;;;;;;5055315;28;20044;-70
2022/08/02 12:56:44;;;;;;;4.85;3.35;;;26.70;89.70;;;;;;5037627;28;20048;-70
2022/08/02 12:59:11;;;;;;;5.03;2.90;;;26.70;90.10;;;;;;5054515;28;20109;-69
2022/08/02 13:01:40;;;;;;;6.13;3.10;;;26.40;90.70;;;;;;5037711;28;20134;-70
2022/08/02 13:04:07;;;;;;;5.45;3.30;;;26.40;90.80;;;;;;5055225;28;20049;-70